Mangilao, Guam
Current Conditions -  °F | °C
As of 6:54 PM on Friday 31 Oct 2014 (Local Time) from PGUM Reporting Station
Light Rain Light Rain  
Wind Chill: 78°   Ceiling: 4000
Heat Index: 81°   Visibility: 10mi
Dew Point: 75°   Wind: 3mph
Humidity: 90%   Direction: 170°S
Pressure: 29.8"   Gusts: NA
Location:  13.44°N, 144.8°E
Report Text: PGUM 310854Z 17003KT 10SM -RA FEW014 SCT021 BKN040 26/24 A2980 RMK AO2 RAB41 SLP085 P0000 60000 T02560239 53023
Loading
Personal Weather Stations






























Interactive Weather Map
Tropical Storm Tracking
New forecast layout! Learn more

10-Day Weather Forecast

Advertisements
Track Severe Weather on mobile